Time;durP1;ratioP1;P1;durP2;ratioP2;P2;SDS_P1;SDS_P2;PMS_P1;PMS_P2;Temp;Humidity;BMP_temperature;BMP_pressure;BME280_temperature;BME280_humidity;BME280_pressure;Samples;Min_cycle;Max_cycle;Signal;HPM_P1;HPM_P2
2023/01/19 00:00:35;;;;;;;;;;;;;;;1.57;50.40;91256.34;2068144;69;20256;-73
2023/01/19 00:03:03;;;;;;;;;;;;;;;0.90;52.18;91260.63;2071341;69;20051;-72
2023/01/19 00:05:28;;;;;;;;;;;;;;;1.17;51.41;91263.25;2068623;69;20132;-75
2023/01/19 00:07:54;;;;;;;;;;;;;;;1.41;51.56;91264.25;2071705;69;20056;-73
2023/01/19 00:10:19;;;;;;;;;;;;;;;1.37;51.83;91272.28;2071733;69;20479;-73
2023/01/19 00:12:45;;;;;;;;;;;;;;;1.45;51.93;91258.25;2072018;69;20056;-73
2023/01/19 00:15:11;;;;;;;;;;;;;;;1.55;52.48;91275.59;2071923;69;20503;-74
2023/01/19 00:17:41;;;;;;;;;;;;;;;1.57;53.22;91281.31;2072061;69;20045;-74
2023/01/19 00:20:08;;;;;;;;;;;;;;;1.40;51.84;91276.66;2071966;69;20133;-74
2023/01/19 00:22:33;;;;;;;;;;;;;;;1.15;49.72;91279.75;2068568;69;20139;-74
2023/01/19 00:24:59;;;;;;;;;;;;;;;1.38;50.73;91284.13;2072053;69;20048;-74
2023/01/19 00:27:24;;;;;;;;;;;;;;;1.58;50.40;91288.31;2068592;69;20055;-72
2023/01/19 00:29:50;;;;;;;;;;;;;;;1.58;49.29;91282.75;2071988;69;20106;-72
2023/01/19 00:32:18;;;;;;;;;;;;;;;1.43;47.39;91288.63;2068484;69;20068;-73
2023/01/19 00:34:48;;;;;;;;;;;;;;;1.56;48.96;91299.25;2072037;69;20048;-74
2023/01/19 00:37:14;;;;;;;;;;;;;;;1.07;50.68;91312.44;2071855;69;20064;-74
2023/01/19 00:39:39;;;;;;;;;;;;;;;1.00;54.23;91313.28;2071872;69;20040;-71
2023/01/19 00:44:49;;;;;;;;;;;;;;;1.42;54.71;91301.75;2072068;69;20480;-71
2023/01/19 00:47:15;;;;;;;;;;;;;;;1.15;55.23;91312.28;2072096;69;20064;-73
2023/01/19 00:49:40;;;;;;;;;;;;;;;1.30;55.52;91308.50;2072507;69;20036;-74
2023/01/19 00:52:05;;;;;;;;;;;;;;;1.44;54.44;91315.75;2072771;69;20114;-73
2023/01/19 00:54:31;;;;;;;;;;;;;;;0.90;55.73;91312.56;2072011;69;20175;-74
2023/01/19 00:56:56;;;;;;;;;;;;;;;0.75;52.72;91319.09;2072024;69;20080;-75
2023/01/19 00:59:22;;;;;;;;;;;;;;;0.97;51.93;91320.75;2072055;69;20514;-74
2023/01/19 01:01:47;;;;;;;;;;;;;;;1.12;53.68;91332.84;2072135;69;20044;-74
2023/01/19 01:04:13;;;;;;;;;;;;;;;0.83;57.69;91336.34;2072050;69;20044;-73
2023/01/19 01:06:39;;;;;;;;;;;;;;;0.24;58.99;91340.97;2068727;69;20087;-73
2023/01/19 01:09:10;;;;;;;;;;;;;;;0.47;57.79;91335.09;2071992;69;20059;-73
2023/01/19 01:11:42;;;;;;;;;;;;;;;0.28;59.35;91339.84;2068913;69;20056;-74
2023/01/19 01:14:08;;;;;;;;;;;;;;;0.80;53.75;91345.06;2072022;69;20045;-74
2023/01/19 01:16:34;;;;;;;;;;;;;;;0.93;55.19;91339.09;2072076;69;20080;-73
2023/01/19 01:18:59;;;;;;;;;;;;;;;0.91;57.56;91333.41;2071947;69;20087;-73
2023/01/19 01:21:25;;;;;;;;;;;;;;;0.57;59.91;91346.19;2071943;69;20503;-74
2023/01/19 01:23:50;;;;;;;;;;;;;;;0.72;58.75;91340.38;2072095;69;20080;-75
2023/01/19 01:26:16;;;;;;;;;;;;;;;1.08;58.14;91344.38;2072008;69;20111;-74
2023/01/19 01:28:41;;;;;;;;;;;;;;;0.75;60.51;91350.31;2071972;69;20052;-73
2023/01/19 01:31:07;;;;;;;;;;;;;;;0.79;60.70;91349.88;2072181;69;20051;-73
2023/01/19 01:33:32;;;;;;;;;;;;;;;1.08;59.34;91360.25;2072134;69;20407;-75
2023/01/19 01:35:58;;;;;;;;;;;;;;;1.11;59.26;91351.53;2072075;69;20052;-74
2023/01/19 01:38:23;;;;;;;;;;;;;;;1.18;59.15;91363.78;2071848;69;20044;-73
2023/01/19 01:40:48;;;;;;;;;;;;;;;1.07;59.71;91362.31;2071878;69;20049;-74
2023/01/19 01:43:15;;;;;;;;;;;;;;;1.10;59.43;91372.25;2072042;69;20060;-74
2023/01/19 01:45:41;;;;;;;;;;;;;;;1.19;58.88;91373.53;2072008;69;20486;-74
2023/01/19 01:48:10;;;;;;;;;;;;;;;1.22;58.62;91381.44;2071963;69;20471;-75
2023/01/19 01:50:38;;;;;;;;;;;;;;;1.23;58.70;91385.66;2071772;69;20156;-74
2023/01/19 01:53:09;;;;;;;;;;;;;;;0.92;59.31;91388.25;2072009;69;20047;-73
2023/01/19 01:55:37;;;;;;;;;;;;;;;0.70;61.18;91378.28;2071985;69;20514;-74
2023/01/19 01:58:03;;;;;;;;;;;;;;;0.87;60.89;91383.72;2072026;69;20238;-74
2023/01/19 02:02:49;;;;;;;;;;;;;;;0.72;60.95;91383.97;2072084;69;20045;-75
2023/01/19 02:03:16;;;;;;;;;;;;;;;1.00;60.15;91377.03;2071862;69;20041;-74
2023/01/19 02:05:42;;;;;;;;;;;;;;;1.10;60.19;91383.34;2072573;69;20514;-73
2023/01/19 02:13:45;;;;;;;;;;;;;;;1.02;61.01;91377.19;2072170;69;20043;-73
2023/01/19 02:16:12;;;;;;;;;;;;;;;0.93;60.94;91375.13;2071961;69;20053;-75
2023/01/19 02:18:38;;;;;;;;;;;;;;;0.70;62.41;91381.78;2071917;69;20509;-75
2023/01/19 02:21:10;;;;;;;;;;;;;;;0.60;63.12;91378.25;2071969;69;20156;-73
2023/01/19 02:23:37;;;;;;;;;;;;;;;0.48;63.49;91377.34;2068441;69;20068;-74
2023/01/19 02:26:03;;;;;;;;;;;;;;;0.86;62.17;91381.53;2071995;69;20055;-74
2023/01/19 02:28:29;;;;;;;;;;;;;;;0.89;61.76;91378.31;2071981;69;20048;-72
2023/01/19 02:30:55;;;;;;;;;;;;;;;1.03;61.73;91378.63;2071981;69;20048;-74
2023/01/19 02:33:20;;;;;;;;;;;;;;;0.96;61.96;91380.25;2075305;69;20052;-75
2023/01/19 02:35:47;;;;;;;;;;;;;;;0.77;62.87;91377.41;2075215;69;20047;-73
2023/01/19 02:38:15;;;;;;;;;;;;;;;0.97;61.21;91375.44;2075233;69;20054;-73
2023/01/19 02:40:41;;;;;;;;;;;;;;;0.59;62.82;91387.84;2076337;69;20044;-72
2023/01/19 02:43:07;;;;;;;;;;;;;;;0.44;63.42;91386.06;2075421;69;20044;-74
2023/01/19 02:45:34;;;;;;;;;;;;;;;0.70;62.81;91392.88;2075213;69;20143;-72
2023/01/19 02:47:59;;;;;;;;;;;;;;;0.50;64.34;91394.09;2075298;69;20088;-75
2023/01/19 02:50:38;;;;;;;;;;;;;;;0.80;63.13;91394.94;2071880;69;20241;-73
2023/01/19 02:53:17;;;;;;;;;;;;;;;0.92;62.17;91398.63;2075159;69;20506;-73
2023/01/19 02:55:46;;;;;;;;;;;;;;;0.92;61.81;91396.56;2075242;69;20052;-75
2023/01/19 02:58:19;;;;;;;;;;;;;;;0.88;61.45;91406.63;2075189;69;20055;-74
2023/01/19 03:00:45;;;;;;;;;;;;;;;0.35;63.29;91403.38;2075078;69;20044;-74
2023/01/19 03:03:10;;;;;;;;;;;;;;;0.28;64.49;91409.75;2071649;69;20507;-74
2023/01/19 03:06:00;;;;;;;;;;;;;;;0.14;64.92;91414.22;2074901;69;20132;-74
2023/01/19 03:08:46;;;;;;;;;;;;;;;0.20;64.42;91404.31;2075162;69;20515;-75
2023/01/19 03:11:12;;;;;;;;;;;;;;;0.42;64.10;91404.56;2075146;69;20060;-74
2023/01/19 03:13:41;;;;;;;;;;;;;;;0.66;62.97;91403.63;2075085;69;20117;-73
2023/01/19 03:16:12;;;;;;;;;;;;;;;0.67;62.92;91401.59;2075177;69;20457;-75
2023/01/19 03:18:41;;;;;;;;;;;;;;;0.49;63.25;91407.22;2075147;69;20060;-73
2023/01/19 03:21:09;;;;;;;;;;;;;;;0.04;64.34;91416.19;2074977;69;20048;-74
2023/01/19 03:23:39;;;;;;;;;;;;;;;-0.07;64.93;91411.91;2071709;69;20135;-72
2023/01/19 03:26:07;;;;;;;;;;;;;;;-0.06;65.37;91414.09;2075097;69;20061;-72
2023/01/19 03:28:33;;;;;;;;;;;;;;;-0.10;65.13;91419.28;2075074;69;20055;-72
2023/01/19 03:31:02;;;;;;;;;;;;;;;0.20;64.39;91429.25;2075133;69;20124;-72
2023/01/19 03:33:31;;;;;;;;;;;;;;;0.08;65.19;91428.28;2074926;69;20051;-71
2023/01/19 03:36:02;;;;;;;;;;;;;;;-0.01;65.72;91429.69;2075140;69;20140;-72
2023/01/19 03:38:30;;;;;;;;;;;;;;;0.19;65.09;91433.31;2071558;69;21078;-75
2023/01/19 03:40:58;;;;;;;;;;;;;;;0.28;64.46;91423.59;2074951;69;20132;-74
2023/01/19 03:43:25;;;;;;;;;;;;;;;0.31;64.08;91424.47;2074736;69;20066;-74
2023/01/19 03:45:51;;;;;;;;;;;;;;;0.36;63.67;91423.47;2074939;69;20154;-75
2023/01/19 03:48:17;;;;;;;;;;;;;;;0.05;66.20;91429.47;2075040;69;20481;-73
2023/01/19 03:50:43;;;;;;;;;;;;;;;0.10;65.85;91431.22;2075198;69;20487;-73
2023/01/19 03:53:10;;;;;;;;;;;;;;;0.33;65.06;91430.19;2074893;69;20045;-72
2023/01/19 03:55:37;;;;;;;;;;;;;;;0.52;64.21;91426.75;2075092;69;20074;-73
2023/01/19 03:58:02;;;;;;;;;;;;;;;0.36;64.73;91426.97;2075108;69;20109;-73
2023/01/19 04:00:27;;;;;;;;;;;;;;;0.45;64.07;91426.28;2075071;69;20060;-74
2023/01/19 04:02:54;;;;;;;;;;;;;;;0.56;63.88;91419.50;2074966;69;20070;-74
2023/01/19 04:05:19;;;;;;;;;;;;;;;0.59;63.67;91420.38;2074864;69;20143;-72
2023/01/19 04:07:47;;;;;;;;;;;;;;;0.50;63.70;91421.78;2074895;69;20094;-71
2023/01/19 04:10:12;;;;;;;;;;;;;;;0.29;64.63;91416.75;2074826;69;20050;-75
2023/01/19 04:12:38;;;;;;;;;;;;;;;0.24;64.35;91424.00;2075127;69;20037;-74
2023/01/19 04:15:05;;;;;;;;;;;;;;;-0.23;65.13;91429.97;2074945;69;20159;-75
2023/01/19 04:17:30;;;;;;;;;;;;;;;-0.04;65.10;91428.09;2074751;69;20051;-74
2023/01/19 04:19:56;;;;;;;;;;;;;;;-0.05;65.42;91429.38;2075000;69;20060;-73
2023/01/19 04:22:21;;;;;;;;;;;;;;;0.17;64.20;91433.16;2075031;69;20091;-75
2023/01/19 04:24:46;;;;;;;;;;;;;;;0.27;64.17;91438.00;2074660;69;20040;-74
2023/01/19 04:27:15;;;;;;;;;;;;;;;0.42;63.24;91435.75;2075163;69;20064;-73
2023/01/19 04:29:40;;;;;;;;;;;;;;;0.38;63.59;91426.41;2074584;69;20044;-75
2023/01/19 04:32:06;;;;;;;;;;;;;;;0.33;63.45;91433.69;2072339;69;20074;-75
2023/01/19 04:34:31;;;;;;;;;;;;;;;0.28;63.86;91439.47;2075039;69;20468;-73
2023/01/19 04:36:57;;;;;;;;;;;;;;;-0.07;64.20;91431.25;2074890;69;20076;-73
2023/01/19 04:39:22;;;;;;;;;;;;;;;0.27;63.21;91444.25;2071462;69;20045;-74
2023/01/19 04:41:48;;;;;;;;;;;;;;;-0.03;64.14;91445.41;2074905;69;20043;-73
2023/01/19 04:44:13;;;;;;;;;;;;;;;0.14;63.89;91450.91;2071574;69;20485;-73
2023/01/19 04:46:39;;;;;;;;;;;;;;;0.38;62.96;91452.06;2074975;69;20136;-75
2023/01/19 04:49:04;;;;;;;;;;;;;;;0.45;62.72;91442.16;2075077;69;20036;-75
2023/01/19 04:51:30;;;;;;;;;;;;;;;0.47;62.93;91447.88;2074786;69;20049;-72
2023/01/19 04:53:56;;;;;;;;;;;;;;;0.16;63.00;91450.34;2071485;69;20117;-73
2023/01/19 04:56:22;;;;;;;;;;;;;;;0.02;62.92;91446.47;2075305;69;20114;-74
2023/01/19 04:58:47;;;;;;;;;;;;;;;0.43;61.71;91445.53;2075401;69;20132;-76
2023/01/19 05:01:13;;;;;;;;;;;;;;;0.31;62.73;91455.66;2075320;69;20487;-76
2023/01/19 05:03:39;;;;;;;;;;;;;;;0.11;64.33;91454.09;2075483;69;20563;-72
2023/01/19 05:06:05;;;;;;;;;;;;;;;-0.01;65.29;91460.13;2075353;69;20036;-71
2023/01/19 05:08:31;;;;;;;;;;;;;;;-0.32;66.98;91457.00;2075211;69;20068;-72
2023/01/19 05:10:56;;;;;;;;;;;;;;;-0.12;67.07;91466.19;2075300;69;20048;-73
2023/01/19 05:13:22;;;;;;;;;;;;;;;-0.10;66.59;91462.84;2075291;69;20036;-74
2023/01/19 05:15:47;;;;;;;;;;;;;;;-0.13;67.10;91464.72;2075518;69;20040;-74
2023/01/19 05:18:13;;;;;;;;;;;;;;;-0.49;68.14;91473.59;2075418;69;20109;-73
2023/01/19 05:20:39;;;;;;;;;;;;;;;-0.26;67.39;91482.38;2075288;69;20052;-72
2023/01/19 05:23:05;;;;;;;;;;;;;;;-0.29;68.50;91477.25;2072023;69;20472;-72
2023/01/19 05:25:33;;;;;;;;;;;;;;;-0.55;69.17;91478.63;2075231;69;20492;-73
2023/01/19 05:27:58;;;;;;;;;;;;;;;-0.58;69.65;91488.81;2075306;69;20074;-73
2023/01/19 05:30:24;;;;;;;;;;;;;;;-0.44;69.36;91480.94;2071968;69;20444;-74
2023/01/19 05:32:49;;;;;;;;;;;;;;;-0.42;69.42;91491.41;2075373;69;20176;-74
2023/01/19 05:35:15;;;;;;;;;;;;;;;-0.07;67.72;91497.66;2075289;69;20056;-76
2023/01/19 05:37:41;;;;;;;;;;;;;;;-0.01;67.80;91489.84;2075270;69;20051;-74
2023/01/19 05:40:07;;;;;;;;;;;;;;;0.10;67.16;91503.19;2075093;69;20051;-73
2023/01/19 05:42:33;;;;;;;;;;;;;;;0.18;66.21;91503.81;2075241;69;20423;-75
2023/01/19 05:44:59;;;;;;;;;;;;;;;-0.16;67.26;91501.81;2075200;69;20052;-74
2023/01/19 05:47:24;;;;;;;;;;;;;;;-0.02;66.76;91493.91;2075171;69;20048;-75
2023/01/19 05:49:49;;;;;;;;;;;;;;;0.16;66.30;91506.41;2075223;69;20040;-74
2023/01/19 05:52:15;;;;;;;;;;;;;;;0.11;66.09;91509.44;2075274;69;20534;-74
2023/01/19 05:54:40;;;;;;;;;;;;;;;-0.03;67.00;91504.25;2075306;69;20389;-75
2023/01/19 05:57:06;;;;;;;;;;;;;;;0.04;66.79;91510.97;2075194;69;20094;-76
2023/01/19 05:59:32;;;;;;;;;;;;;;;0.11;66.16;91512.94;2075355;69;20044;-74
2023/01/19 06:01:58;;;;;;;;;;;;;;;0.20;66.51;91517.06;2075488;69;20484;-76
2023/01/19 06:04:24;;;;;;;;;;;;;;;0.13;66.38;91526.91;2075357;69;20051;-74
2023/01/19 06:06:49;;;;;;;;;;;;;;;0.20;65.57;91520.56;2075345;69;20040;-74
2023/01/19 06:09:16;;;;;;;;;;;;;;;0.28;65.12;91517.00;2075146;69;20040;-75
2023/01/19 06:11:42;;;;;;;;;;;;;;;0.34;64.89;91523.72;2071937;69;20056;-74
2023/01/19 06:14:08;;;;;;;;;;;;;;;0.35;65.11;91527.94;2075248;69;20040;-75
2023/01/19 06:16:33;;;;;;;;;;;;;;;0.29;64.83;91533.00;2076131;69;20087;-74
2023/01/19 06:18:59;;;;;;;;;;;;;;;0.19;65.42;91532.97;2075536;69;20643;-73
2023/01/19 06:21:24;;;;;;;;;;;;;;;0.04;66.07;91540.69;2075311;69;20040;-74
2023/01/19 06:23:50;;;;;;;;;;;;;;;0.03;65.97;91537.19;2075263;69;20113;-73
2023/01/19 06:26:15;;;;;;;;;;;;;;;0.13;65.61;91540.03;2075232;69;20060;-75
2023/01/19 06:28:41;;;;;;;;;;;;;;;0.16;65.50;91539.63;2075154;69;20036;-74
2023/01/19 06:31:07;;;;;;;;;;;;;;;0.22;64.64;91547.66;2075123;69;20036;-74
2023/01/19 06:33:32;;;;;;;;;;;;;;;0.22;65.02;91547.66;2075184;69;20139;-74
2023/01/19 06:35:58;;;;;;;;;;;;;;;0.14;66.05;91552.59;2075217;69;20403;-75
2023/01/19 06:38:24;;;;;;;;;;;;;;;0.05;65.66;91550.47;2075140;69;20380;-74
2023/01/19 06:40:53;;;;;;;;;;;;;;;-0.03;66.61;91547.78;2075160;69;20498;-73
2023/01/19 06:43:19;;;;;;;;;;;;;;;-0.05;67.01;91555.91;2075125;69;20137;-73
2023/01/19 06:45:45;;;;;;;;;;;;;;;0.08;66.30;91555.56;2075087;69;20429;-72
2023/01/19 06:48:10;;;;;;;;;;;;;;;0.02;66.58;91559.91;2075182;69;20067;-75
2023/01/19 06:50:36;;;;;;;;;;;;;;;-0.01;66.61;91562.50;2075155;69;20063;-72
2023/01/19 06:53:01;;;;;;;;;;;;;;;-0.26;67.68;91556.31;2075407;69;20127;-73
2023/01/19 06:55:27;;;;;;;;;;;;;;;-0.24;67.70;91559.25;2075085;69;20044;-73
2023/01/19 06:57:57;;;;;;;;;;;;;;;0.00;66.66;91560.50;2075312;69;20052;-75
2023/01/19 07:00:23;;;;;;;;;;;;;;;-0.29;67.00;91563.72;2075134;69;20435;-74
2023/01/19 07:02:48;;;;;;;;;;;;;;;-0.41;65.94;91562.75;2075078;69;20047;-73
2023/01/19 07:05:14;;;;;;;;;;;;;;;-0.30;65.62;91578.84;2075173;69;20070;-73
2023/01/19 07:07:41;;;;;;;;;;;;;;;-0.08;64.65;91571.63;2071685;69;20373;-73
2023/01/19 07:10:07;;;;;;;;;;;;;;;0.02;64.58;91576.50;2074956;69;20075;-74
2023/01/19 07:12:32;;;;;;;;;;;;;;;-0.13;65.21;91578.13;2075053;69;20044;-74
2023/01/19 07:14:58;;;;;;;;;;;;;;;-0.28;65.90;91575.50;2075371;69;20036;-72
2023/01/19 07:17:24;;;;;;;;;;;;;;;-0.59;68.36;91580.59;2075216;69;20044;-72
2023/01/19 07:19:49;;;;;;;;;;;;;;;-0.14;67.00;91573.88;2075152;69;20372;-73
2023/01/19 07:22:15;;;;;;;;;;;;;;;-0.44;68.11;91576.97;2075038;69;20500;-73
2023/01/19 07:24:40;;;;;;;;;;;;;;;-0.72;70.20;91586.44;2074892;69;20044;-72
2023/01/19 07:27:06;;;;;;;;;;;;;;;-0.58;69.99;91579.31;2075133;69;20071;-72
2023/01/19 07:29:31;;;;;;;;;;;;;;;-0.36;68.93;91585.94;2074985;69;20494;-74
2023/01/19 07:31:57;;;;;;;;;;;;;;;-0.31;68.55;91585.69;2071230;69;20137;-74
2023/01/19 07:34:22;;;;;;;;;;;;;;;-0.44;69.49;91596.31;2071763;69;20055;-74
2023/01/19 07:36:48;;;;;;;;;;;;;;;-0.57;69.50;91592.53;2071739;69;20045;-72
2023/01/19 07:39:13;;;;;;;;;;;;;;;-0.37;69.05;91601.75;2071619;69;20084;-75
2023/01/19 07:41:39;;;;;;;;;;;;;;;-0.40;69.32;91600.16;2071257;69;20051;-74
2023/01/19 07:44:05;;;;;;;;;;;;;;;-0.43;68.80;91614.38;2071651;69;20092;-75
2023/01/19 07:46:30;;;;;;;;;;;;;;;-0.54;69.20;91615.56;2071768;69;20080;-75
2023/01/19 07:48:56;;;;;;;;;;;;;;;-0.14;67.89;91620.91;2071619;69;20072;-76
2023/01/19 07:51:21;;;;;;;;;;;;;;;-0.14;68.01;91618.16;2071709;69;20491;-78
2023/01/19 07:53:50;;;;;;;;;;;;;;;0.11;66.83;91628.44;2070972;69;20051;-75
2023/01/19 07:56:15;;;;;;;;;;;;;;;0.18;66.59;91624.84;2071683;69;20495;-73
2023/01/19 07:58:41;;;;;;;;;;;;;;;0.23;66.72;91632.19;2071605;69;20084;-74
2023/01/19 08:01:10;;;;;;;;;;;;;;;0.08;66.80;91627.53;2071619;69;20110;-73
2023/01/19 08:03:36;;;;;;;;;;;;;;;-0.19;68.31;91629.47;2072537;69;20167;-74
2023/01/19 08:06:03;;;;;;;;;;;;;;;0.25;66.86;91629.56;2072450;69;20515;-70
2023/01/19 08:08:30;;;;;;;;;;;;;;;0.37;65.95;91627.78;2071506;69;20473;-72
2023/01/19 08:10:55;;;;;;;;;;;;;;;0.41;66.47;91636.41;2071529;69;20472;-71
2023/01/19 08:13:21;;;;;;;;;;;;;;;0.46;66.03;91637.47;2071752;69;20041;-74
2023/01/19 08:15:50;;;;;;;;;;;;;;;0.58;65.57;91630.13;2071751;69;20071;-74
2023/01/19 08:18:16;;;;;;;;;;;;;;;0.35;64.14;91635.91;2071584;69;20044;-74
2023/01/19 08:20:41;;;;;;;;;;;;;;;0.10;60.48;91632.50;2071600;69;20044;-71
2023/01/19 08:23:07;;;;;;;;;;;;;;;-0.04;59.18;91632.81;2071146;69;20053;-71
2023/01/19 08:25:33;;;;;;;;;;;;;;;-0.22;65.12;91641.66;2071497;69;20052;-72
2023/01/19 08:28:00;;;;;;;;;;;;;;;-0.26;67.83;91642.06;2071785;69;20045;-72
2023/01/19 08:30:26;;;;;;;;;;;;;;;-0.28;68.66;91639.84;2072030;69;20053;-72
2023/01/19 08:32:53;;;;;;;;;;;;;;;-0.26;68.66;91631.72;2071290;69;20041;-71
2023/01/19 08:35:18;;;;;;;;;;;;;;;-0.40;69.26;91638.88;2072167;69;20045;-75
2023/01/19 08:37:44;;;;;;;;;;;;;;;0.03;68.43;91641.63;2072372;69;20056;-72
2023/01/19 08:40:11;;;;;;;;;;;;;;;-0.15;68.63;91640.84;2072139;69;20072;-73
2023/01/19 08:42:36;;;;;;;;;;;;;;;-0.31;69.17;91629.94;2072100;69;20075;-71
2023/01/19 08:45:02;;;;;;;;;;;;;;;-0.21;69.34;91638.31;2072100;69;20044;-71
2023/01/19 08:47:28;;;;;;;;;;;;;;;0.29;67.81;91643.00;2072109;69;20508;-73
2023/01/19 08:49:53;;;;;;;;;;;;;;;0.59;65.97;91647.47;2072185;69;20109;-74
2023/01/19 08:52:18;;;;;;;;;;;;;;;-0.12;66.06;91646.00;2072347;69;20048;-74
2023/01/19 08:54:44;;;;;;;;;;;;;;;-0.12;65.77;91648.75;2071982;69;20047;-74
2023/01/19 08:57:09;;;;;;;;;;;;;;;0.22;64.51;91656.34;2072213;69;20365;-73
2023/01/19 08:59:35;;;;;;;;;;;;;;;0.17;65.75;91653.81;2072031;69;20500;-72
2023/01/19 09:02:01;;;;;;;;;;;;;;;0.28;65.57;91653.34;2068547;69;20056;-71
2023/01/19 09:04:28;;;;;;;;;;;;;;;-0.02;66.42;91657.16;2072045;69;20422;-70
2023/01/19 09:06:53;;;;;;;;;;;;;;;0.23;64.96;91657.84;2071956;69;20051;-71
2023/01/19 09:09:18;;;;;;;;;;;;;;;0.34;64.12;91664.91;2071888;69;20060;-73
2023/01/19 09:11:44;;;;;;;;;;;;;;;0.16;64.26;91664.16;2072104;69;20040;-74
2023/01/19 09:14:09;;;;;;;;;;;;;;;0.41;63.82;91668.88;2068654;69;20052;-71
2023/01/19 09:16:35;;;;;;;;;;;;;;;0.52;63.07;91668.41;2068640;69;20045;-73
2023/01/19 09:19:00;;;;;;;;;;;;;;;0.30;64.03;91667.34;2072189;69;20036;-72
2023/01/19 09:21:26;;;;;;;;;;;;;;;0.32;64.68;91673.06;2072102;69;20513;-73
2023/01/19 09:23:53;;;;;;;;;;;;;;;0.19;64.06;91667.84;2071994;69;20048;-72
2023/01/19 09:26:21;;;;;;;;;;;;;;;0.43;63.52;91671.84;2072010;69;20597;-72
2023/01/19 09:28:46;;;;;;;;;;;;;;;0.52;63.84;91671.19;2072093;69;20057;-71
2023/01/19 09:31:12;;;;;;;;;;;;;;;0.55;62.78;91670.03;2072094;69;20472;-73
2023/01/19 09:33:37;;;;;;;;;;;;;;;0.31;63.51;91677.13;2071955;69;20135;-71
2023/01/19 09:36:03;;;;;;;;;;;;;;;0.36;63.83;91669.88;2071881;69;20070;-71
2023/01/19 09:38:31;;;;;;;;;;;;;;;0.01;64.46;91666.38;2071827;69;20056;-72
2023/01/19 09:40:57;;;;;;;;;;;;;;;0.23;64.20;91679.97;2071642;69;20155;-71
2023/01/19 09:43:38;;;;;;;;;;;;;;;0.46;63.56;91679.75;2071961;69;20071;-73
2023/01/19 09:46:16;;;;;;;;;;;;;;;0.42;63.71;91670.38;2068681;69;20471;-72
2023/01/19 09:48:42;;;;;;;;;;;;;;;0.38;62.43;91681.13;2071902;69;20131;-72
2023/01/19 09:51:12;;;;;;;;;;;;;;;0.49;62.21;91686.16;2072035;69;20463;-72
2023/01/19 09:53:44;;;;;;;;;;;;;;;0.88;61.78;91678.88;2068798;69;20044;-72
2023/01/19 09:56:14;;;;;;;;;;;;;;;0.83;61.36;91679.88;2071906;69;20140;-72
2023/01/19 09:58:39;;;;;;;;;;;;;;;0.83;60.38;91679.16;2072024;69;20105;-72
2023/01/19 10:01:11;;;;;;;;;;;;;;;0.70;60.77;91675.41;2071818;69;20052;-74
2023/01/19 10:03:40;;;;;;;;;;;;;;;1.05;61.55;91675.34;2071884;69;20080;-74
2023/01/19 10:06:08;;;;;;;;;;;;;;;1.23;60.33;91678.78;2071953;69;20152;-74
2023/01/19 10:09:09;;;;;;;;;;;;;;;1.45;59.80;91680.53;2072016;69;20088;-71
2023/01/19 10:11:44;;;;;;;;;;;;;;;1.60;59.31;91678.81;2054876;69;20136;-73
2023/01/19 10:14:19;;;;;;;;;;;;;;;1.48;58.73;91678.66;2057728;69;20057;-73
2023/01/19 10:17:08;;;;;;;;;;;;;;;2.02;58.62;91684.84;2057730;69;20042;-72
2023/01/19 10:19:36;;;;;;;;;;;;;;;2.19;57.80;91681.22;2056260;69;20107;-73
2023/01/19 10:22:28;;;;;;;;;;;;;;;1.53;58.55;91685.97;2057703;69;20070;-72
2023/01/19 10:24:55;;;;;;;;;;;;;;;1.37;59.10;91687.47;2056978;69;20050;-73
2023/01/19 10:27:27;;;;;;;;;;;;;;;1.50;58.30;91695.44;2057609;69;20049;-74
2023/01/19 10:29:52;;;;;;;;;;;;;;;1.60;57.49;91695.47;2057685;69;20068;-75
2023/01/19 10:32:29;;;;;;;;;;;;;;;1.50;57.01;91690.63;2057776;69;20179;-73
2023/01/19 10:34:56;;;;;;;;;;;;;;;2.09;56.36;91694.34;2057825;69;20129;-74
2023/01/19 10:37:40;;;;;;;;;;;;;;;1.61;55.30;91688.63;2057744;69;20483;-74
2023/01/19 10:40:09;;;;;;;;;;;;;;;1.36;55.89;91683.97;2057463;69;20058;-74
2023/01/19 10:42:35;;;;;;;;;;;;;;;1.35;55.18;91685.28;2057578;69;20042;-73
2023/01/19 10:45:00;;;;;;;;;;;;;;;1.65;54.79;91684.13;2058687;69;20056;-72
2023/01/19 10:47:31;;;;;;;;;;;;;;;1.48;55.35;91682.16;2071924;69;20068;-73
2023/01/19 10:49:56;;;;;;;;;;;;;;;1.18;54.15;91677.03;2071872;69;20543;-71
2023/01/19 10:52:38;;;;;;;;;;;;;;;1.37;53.46;91676.38;2071966;69;20134;-72
2023/01/19 10:55:05;;;;;;;;;;;;;;;1.82;54.33;91671.47;2071755;69;20115;-71
2023/01/19 10:57:35;;;;;;;;;;;;;;;1.77;53.66;91671.16;2071741;69;20135;-72
2023/01/19 11:00:01;;;;;;;;;;;;;;;1.02;52.41;91670.94;2068469;69;20076;-74
2023/01/19 11:02:28;;;;;;;;;;;;;;;1.88;51.99;91681.00;2068392;69;20160;-74
2023/01/19 11:04:58;;;;;;;;;;;;;;;2.24;50.92;91669.09;2068443;69;20158;-73
2023/01/19 11:07:32;;;;;;;;;;;;;;;2.68;50.23;91668.13;2071826;69;20040;-74
2023/01/19 11:10:19;;;;;;;;;;;;;;;2.80;50.97;91673.81;2071576;69;20103;-72
2023/01/19 11:12:57;;;;;;;;;;;;;;;2.43;50.85;91671.19;2071731;69;20048;-73
2023/01/19 11:15:26;;;;;;;;;;;;;;;2.77;50.32;91664.59;2071845;69;20047;-75
2023/01/19 11:17:52;;;;;;;;;;;;;;;2.77;50.33;91666.66;2072117;69;20045;-74
2023/01/19 11:20:42;;;;;;;;;;;;;;;2.76;50.22;91662.41;2071793;69;20078;-73
2023/01/19 11:23:23;;;;;;;;;;;;;;;2.66;50.14;91642.97;2069963;69;20047;-73
2023/01/19 11:25:51;;;;;;;;;;;;;;;2.31;49.86;91659.16;2071708;69;20056;-73
2023/01/19 11:28:37;;;;;;;;;;;;;;;2.86;49.79;91637.41;2071718;69;20118;-74
2023/01/19 11:31:23;;;;;;;;;;;;;;;2.98;48.88;91654.94;2068307;69;20055;-72
2023/01/19 11:33:50;;;;;;;;;;;;;;;2.36;50.22;91655.38;2069134;69;20586;-75
2023/01/19 11:36:17;;;;;;;;;;;;;;;2.79;49.17;91650.88;2071908;69;20484;-74
2023/01/19 11:38:49;;;;;;;;;;;;;;;2.27;48.55;91654.03;2071506;69;20044;-73
2023/01/19 11:41:14;;;;;;;;;;;;;;;2.87;48.76;91642.34;2073077;69;20033;-74
2023/01/19 11:43:40;;;;;;;;;;;;;;;2.32;47.24;91641.19;2071914;69;20134;-76
2023/01/19 11:46:10;;;;;;;;;;;;;;;2.84;46.21;91645.56;2071805;69;20193;-76
2023/01/19 11:48:38;;;;;;;;;;;;;;;2.06;46.18;91642.75;2071654;69;20047;-74
2023/01/19 11:51:08;;;;;;;;;;;;;;;2.06;46.62;91636.47;2071594;69;20048;-72
2023/01/19 11:53:34;;;;;;;;;;;;;;;2.71;46.34;91644.00;2071426;69;20040;-74
2023/01/19 11:56:07;;;;;;;;;;;;;;;2.53;45.22;91635.06;2071539;69;20424;-73
2023/01/19 11:58:36;;;;;;;;;;;;;;;2.36;45.61;91640.75;2068131;69;20150;-75
2023/01/19 12:01:11;;;;;;;;;;;;;;;2.01;48.05;91629.88;2071407;69;20040;-74
2023/01/19 12:03:43;;;;;;;;;;;;;;;2.30;46.86;91638.28;2071506;69;20182;-75
2023/01/19 12:06:19;;;;;;;;;;;;;;;1.46;48.83;91629.28;2071583;69;20055;-74
2023/01/19 12:08:52;;;;;;;;;;;;;;;2.02;49.16;91636.91;2068182;69;20147;-75
2023/01/19 12:11:22;;;;;;;;;;;;;;;1.84;49.12;91632.78;2071676;69;20049;-76
2023/01/19 12:13:47;;;;;;;;;;;;;;;1.77;48.28;91642.69;2071552;69;20133;-76
2023/01/19 12:16:24;;;;;;;;;;;;;;;2.31;47.55;91639.72;2071558;69;20056;-75
2023/01/19 12:18:58;;;;;;;;;;;;;;;2.25;45.00;91637.25;2071607;69;20060;-75
2023/01/19 12:21:24;;;;;;;;;;;;;;;2.22;45.98;91638.41;2071607;69;20094;-75
2023/01/19 12:24:00;;;;;;;;;;;;;;;2.07;46.26;91641.44;2071510;69;20146;-73
2023/01/19 12:26:33;;;;;;;;;;;;;;;1.87;45.31;91645.47;2071655;69;20044;-75
2023/01/19 12:29:09;;;;;;;;;;;;;;;1.53;47.22;91644.34;2071595;69;20043;-75
2023/01/19 12:31:35;;;;;;;;;;;;;;;1.51;45.43;91644.94;2071683;69;20080;-74
2023/01/19 12:34:19;;;;;;;;;;;;;;;1.92;45.32;91638.91;2071698;69;20037;-73
2023/01/19 12:36:47;;;;;;;;;;;;;;;1.37;47.13;91646.59;2071653;69;20506;-76
2023/01/19 12:39:20;;;;;;;;;;;;;;;1.49;47.00;91644.78;2071483;69;20048;-74
2023/01/19 12:41:46;;;;;;;;;;;;;;;1.53;46.76;91636.03;2073219;69;20131;-74
2023/01/19 12:46:38;;;;;;;;;;;;;;;2.33;45.46;91648.19;2071500;69;20483;-77
2023/01/19 12:49:05;;;;;;;;;;;;;;;2.42;45.45;91641.19;2071603;69;20049;-74
2023/01/19 12:51:31;;;;;;;;;;;;;;;2.60;45.24;91633.44;2071474;69;20071;-71
2023/01/19 12:54:00;;;;;;;;;;;;;;;2.66;44.65;91636.69;2071450;69;20472;-72
2023/01/19 12:56:28;;;;;;;;;;;;;;;2.00;43.46;91629.16;2071586;69;20045;-74
2023/01/19 12:58:54;;;;;;;;;;;;;;;1.90;40.82;91628.41;2071261;69;20118;-73
2023/01/19 13:01:23;;;;;;;;;;;;;;;2.27;41.82;91626.28;2071543;69;20049;-72
2023/01/19 13:04:06;;;;;;;;;;;;;;;2.42;40.50;91624.53;2071612;69;20044;-74
2023/01/19 13:06:51;;;;;;;;;;;;;;;2.42;40.79;91625.25;2068086;69;20052;-70
2023/01/19 13:09:27;;;;;;;;;;;;;;;2.48;41.62;91627.75;2071378;69;20072;-70